sensor_id;sensor_type;location;lat;lon;timestamp;P1;durP1;ratioP1;P2;durP2;ratioP2
33830;SDS011;20137;48.834;8.732;2024-01-30T00:01:55;2.95;;;1.92;;
33830;SDS011;20137;48.834;8.732;2024-01-30T00:04:21;7.13;;;2.70;;
33830;SDS011;20137;48.834;8.732;2024-01-30T00:06:47;3.83;;;1.98;;
33830;SDS011;20137;48.834;8.732;2024-01-30T00:09:13;5.57;;;2.50;;
33830;SDS011;20137;48.834;8.732;2024-01-30T00:11:40;5.75;;;2.25;;
33830;SDS011;20137;48.834;8.732;2024-01-30T00:14:06;4.93;;;2.22;;
33830;SDS011;20137;48.834;8.732;2024-01-30T00:16:32;6.47;;;2.63;;
33830;SDS011;20137;48.834;8.732;2024-01-30T00:18:58;5.47;;;2.42;;
33830;SDS011;20137;48.834;8.732;2024-01-30T00:21:24;4.30;;;2.10;;
33830;SDS011;20137;48.834;8.732;2024-01-30T00:23:50;5.82;;;2.97;;
33830;SDS011;20137;48.834;8.732;2024-01-30T00:26:16;4.82;;;3.13;;
33830;SDS011;20137;48.834;8.732;2024-01-30T00:28:42;5.72;;;2.92;;
33830;SDS011;20137;48.834;8.732;2024-01-30T00:31:09;5.50;;;2.78;;
33830;SDS011;20137;48.834;8.732;2024-01-30T00:33:38;4.82;;;2.47;;
33830;SDS011;20137;48.834;8.732;2024-01-30T00:36:05;5.88;;;2.83;;
33830;SDS011;20137;48.834;8.732;2024-01-30T00:38:31;6.70;;;2.70;;
33830;SDS011;20137;48.834;8.732;2024-01-30T00:40:58;5.68;;;2.60;;
33830;SDS011;20137;48.834;8.732;2024-01-30T00:43:24;3.55;;;2.10;;
33830;SDS011;20137;48.834;8.732;2024-01-30T00:45:50;5.40;;;2.60;;
33830;SDS011;20137;48.834;8.732;2024-01-30T00:48:19;6.03;;;2.08;;
33830;SDS011;20137;48.834;8.732;2024-01-30T00:50:45;4.55;;;2.17;;
33830;SDS011;20137;48.834;8.732;2024-01-30T00:53:12;5.55;;;1.98;;
33830;SDS011;20137;48.834;8.732;2024-01-30T00:55:38;5.32;;;2.50;;
33830;SDS011;20137;48.834;8.732;2024-01-30T00:58:04;3.95;;;2.08;;
33830;SDS011;20137;48.834;8.732;2024-01-30T01:00:30;3.25;;;2.15;;
33830;SDS011;20137;48.834;8.732;2024-01-30T01:02:57;8.57;;;2.70;;
33830;SDS011;20137;48.834;8.732;2024-01-30T01:05:23;4.53;;;2.15;;
33830;SDS011;20137;48.834;8.732;2024-01-30T01:07:49;5.20;;;2.10;;
33830;SDS011;20137;48.834;8.732;2024-01-30T01:10:16;5.13;;;2.17;;
33830;SDS011;20137;48.834;8.732;2024-01-30T01:12:43;3.97;;;2.28;;
33830;SDS011;20137;48.834;8.732;2024-01-30T01:15:09;4.50;;;1.92;;
33830;SDS011;20137;48.834;8.732;2024-01-30T01:17:38;4.30;;;2.08;;
33830;SDS011;20137;48.834;8.732;2024-01-30T01:20:04;4.82;;;1.90;;
33830;SDS011;20137;48.834;8.732;2024-01-30T01:22:31;4.15;;;2.33;;
33830;SDS011;20137;48.834;8.732;2024-01-30T01:24:57;3.47;;;2.15;;
33830;SDS011;20137;48.834;8.732;2024-01-30T01:27:23;4.00;;;2.10;;
33830;SDS011;20137;48.834;8.732;2024-01-30T01:29:50;2.97;;;2.00;;
33830;SDS011;20137;48.834;8.732;2024-01-30T01:32:16;4.13;;;1.77;;
33830;SDS011;20137;48.834;8.732;2024-01-30T01:34:42;3.47;;;1.95;;
33830;SDS011;20137;48.834;8.732;2024-01-30T01:37:08;4.20;;;2.03;;
33830;SDS011;20137;48.834;8.732;2024-01-30T01:39:34;4.07;;;2.40;;
33830;SDS011;20137;48.834;8.732;2024-01-30T01:42:00;6.35;;;2.30;;
33830;SDS011;20137;48.834;8.732;2024-01-30T01:44:26;4.70;;;2.55;;
33830;SDS011;20137;48.834;8.732;2024-01-30T01:46:52;5.15;;;2.63;;
33830;SDS011;20137;48.834;8.732;2024-01-30T01:49:19;8.57;;;2.00;;
33830;SDS011;20137;48.834;8.732;2024-01-30T01:51:45;3.45;;;2.10;;
33830;SDS011;20137;48.834;8.732;2024-01-30T01:54:12;3.60;;;1.95;;
33830;SDS011;20137;48.834;8.732;2024-01-30T01:56:39;3.78;;;1.95;;
33830;SDS011;20137;48.834;8.732;2024-01-30T01:59:05;3.80;;;1.98;;
33830;SDS011;20137;48.834;8.732;2024-01-30T02:01:37;4.75;;;2.08;;
33830;SDS011;20137;48.834;8.732;2024-01-30T02:04:06;3.85;;;2.13;;
33830;SDS011;20137;48.834;8.732;2024-01-30T02:06:32;4.60;;;2.30;;
33830;SDS011;20137;48.834;8.732;2024-01-30T02:08:59;6.28;;;2.20;;
33830;SDS011;20137;48.834;8.732;2024-01-30T02:11:25;5.80;;;2.17;;
33830;SDS011;20137;48.834;8.732;2024-01-30T02:13:51;4.00;;;1.98;;
33830;SDS011;20137;48.834;8.732;2024-01-30T02:16:18;4.60;;;1.80;;
33830;SDS011;20137;48.834;8.732;2024-01-30T02:18:44;3.65;;;1.80;;
33830;SDS011;20137;48.834;8.732;2024-01-30T02:21:16;3.78;;;2.55;;
33830;SDS011;20137;48.834;8.732;2024-01-30T02:23:42;3.42;;;2.10;;
33830;SDS011;20137;48.834;8.732;2024-01-30T02:26:09;5.60;;;1.90;;
33830;SDS011;20137;48.834;8.732;2024-01-30T02:28:36;6.78;;;1.90;;
33830;SDS011;20137;48.834;8.732;2024-01-30T02:31:02;3.58;;;1.75;;
33830;SDS011;20137;48.834;8.732;2024-01-30T02:33:28;4.90;;;2.10;;
33830;SDS011;20137;48.834;8.732;2024-01-30T02:35:54;3.63;;;1.88;;
33830;SDS011;20137;48.834;8.732;2024-01-30T02:38:20;3.65;;;1.80;;
33830;SDS011;20137;48.834;8.732;2024-01-30T02:40:46;4.70;;;1.95;;
33830;SDS011;20137;48.834;8.732;2024-01-30T02:43:12;5.53;;;2.22;;
33830;SDS011;20137;48.834;8.732;2024-01-30T02:45:38;7.95;;;2.10;;
33830;SDS011;20137;48.834;8.732;2024-01-30T02:48:04;4.97;;;2.00;;
33830;SDS011;20137;48.834;8.732;2024-01-30T02:50:30;5.35;;;2.10;;
33830;SDS011;20137;48.834;8.732;2024-01-30T02:52:56;4.03;;;2.00;;
33830;SDS011;20137;48.834;8.732;2024-01-30T02:55:25;4.88;;;1.90;;
33830;SDS011;20137;48.834;8.732;2024-01-30T02:57:51;3.40;;;1.90;;
33830;SDS011;20137;48.834;8.732;2024-01-30T03:00:17;5.70;;;2.22;;
33830;SDS011;20137;48.834;8.732;2024-01-30T03:02:45;5.72;;;2.38;;
33830;SDS011;20137;48.834;8.732;2024-01-30T03:05:11;5.47;;;2.53;;
33830;SDS011;20137;48.834;8.732;2024-01-30T03:07:40;5.43;;;2.15;;
33830;SDS011;20137;48.834;8.732;2024-01-30T03:10:07;2.53;;;1.70;;
33830;SDS011;20137;48.834;8.732;2024-01-30T03:12:33;4.43;;;2.13;;
33830;SDS011;20137;48.834;8.732;2024-01-30T03:15:01;3.20;;;2.00;;
33830;SDS011;20137;48.834;8.732;2024-01-30T03:17:27;4.93;;;1.85;;
33830;SDS011;20137;48.834;8.732;2024-01-30T03:19:53;3.88;;;1.73;;
33830;SDS011;20137;48.834;8.732;2024-01-30T03:22:19;3.70;;;1.90;;
33830;SDS011;20137;48.834;8.732;2024-01-30T03:24:45;3.55;;;2.20;;
33830;SDS011;20137;48.834;8.732;2024-01-30T03:27:11;5.93;;;2.00;;
33830;SDS011;20137;48.834;8.732;2024-01-30T03:29:37;4.15;;;1.85;;
33830;SDS011;20137;48.834;8.732;2024-01-30T03:32:03;3.83;;;1.90;;
33830;SDS011;20137;48.834;8.732;2024-01-30T03:34:29;2.22;;;1.70;;
33830;SDS011;20137;48.834;8.732;2024-01-30T03:36:56;2.70;;;1.60;;
33830;SDS011;20137;48.834;8.732;2024-01-30T03:39:22;3.45;;;1.77;;
33830;SDS011;20137;48.834;8.732;2024-01-30T03:41:49;2.83;;;1.90;;
33830;SDS011;20137;48.834;8.732;2024-01-30T03:44:15;3.35;;;1.80;;
33830;SDS011;20137;48.834;8.732;2024-01-30T03:46:41;3.67;;;1.77;;
33830;SDS011;20137;48.834;8.732;2024-01-30T03:49:07;3.55;;;1.67;;
33830;SDS011;20137;48.834;8.732;2024-01-30T03:51:33;4.45;;;1.70;;
33830;SDS011;20137;48.834;8.732;2024-01-30T03:53:59;2.88;;;1.70;;
33830;SDS011;20137;48.834;8.732;2024-01-30T03:56:25;3.25;;;1.73;;
33830;SDS011;20137;48.834;8.732;2024-01-30T03:58:51;4.72;;;2.20;;
33830;SDS011;20137;48.834;8.732;2024-01-30T04:01:17;6.13;;;2.85;;
33830;SDS011;20137;48.834;8.732;2024-01-30T04:03:44;6.32;;;2.85;;
33830;SDS011;20137;48.834;8.732;2024-01-30T04:06:10;4.70;;;2.17;;
33830;SDS011;20137;48.834;8.732;2024-01-30T04:08:36;4.45;;;2.00;;
33830;SDS011;20137;48.834;8.732;2024-01-30T04:11:03;3.67;;;2.10;;
33830;SDS011;20137;48.834;8.732;2024-01-30T04:13:30;4.22;;;2.15;;
33830;SDS011;20137;48.834;8.732;2024-01-30T04:15:57;4.97;;;2.00;;
33830;SDS011;20137;48.834;8.732;2024-01-30T04:18:23;6.38;;;1.70;;
33830;SDS011;20137;48.834;8.732;2024-01-30T04:20:49;4.53;;;1.98;;
33830;SDS011;20137;48.834;8.732;2024-01-30T04:23:14;2.85;;;1.60;;
33830;SDS011;20137;48.834;8.732;2024-01-30T04:25:40;4.13;;;1.90;;
33830;SDS011;20137;48.834;8.732;2024-01-30T04:28:06;4.45;;;2.15;;
33830;SDS011;20137;48.834;8.732;2024-01-30T04:30:32;4.45;;;1.95;;
33830;SDS011;20137;48.834;8.732;2024-01-30T04:32:58;9.93;;;4.35;;
33830;SDS011;20137;48.834;8.732;2024-01-30T04:35:24;6.85;;;3.67;;
33830;SDS011;20137;48.834;8.732;2024-01-30T04:37:52;8.52;;;3.45;;
33830;SDS011;20137;48.834;8.732;2024-01-30T04:40:18;3.35;;;2.13;;
33830;SDS011;20137;48.834;8.732;2024-01-30T04:42:44;4.25;;;2.05;;
33830;SDS011;20137;48.834;8.732;2024-01-30T04:45:10;4.85;;;2.00;;
33830;SDS011;20137;48.834;8.732;2024-01-30T04:47:36;4.38;;;2.22;;
33830;SDS011;20137;48.834;8.732;2024-01-30T04:50:02;6.75;;;1.88;;
33830;SDS011;20137;48.834;8.732;2024-01-30T04:52:29;3.83;;;1.95;;
33830;SDS011;20137;48.834;8.732;2024-01-30T04:54:55;4.18;;;1.90;;
33830;SDS011;20137;48.834;8.732;2024-01-30T04:57:21;2.90;;;1.85;;
33830;SDS011;20137;48.834;8.732;2024-01-30T04:59:47;3.22;;;1.80;;
33830;SDS011;20137;48.834;8.732;2024-01-30T05:02:14;5.35;;;2.22;;
33830;SDS011;20137;48.834;8.732;2024-01-30T05:04:40;7.47;;;2.35;;
33830;SDS011;20137;48.834;8.732;2024-01-30T05:07:07;5.22;;;2.45;;
33830;SDS011;20137;48.834;8.732;2024-01-30T05:09:33;5.10;;;2.40;;
33830;SDS011;20137;48.834;8.732;2024-01-30T05:11:59;9.80;;;4.50;;
33830;SDS011;20137;48.834;8.732;2024-01-30T05:14:25;9.80;;;5.50;;
33830;SDS011;20137;48.834;8.732;2024-01-30T05:16:51;6.63;;;3.15;;
33830;SDS011;20137;48.834;8.732;2024-01-30T05:19:17;6.22;;;2.67;;
33830;SDS011;20137;48.834;8.732;2024-01-30T05:21:42;4.30;;;2.10;;
33830;SDS011;20137;48.834;8.732;2024-01-30T05:24:08;5.22;;;2.13;;
33830;SDS011;20137;48.834;8.732;2024-01-30T05:26:35;3.58;;;1.92;;
33830;SDS011;20137;48.834;8.732;2024-01-30T05:29:01;3.65;;;2.22;;
33830;SDS011;20137;48.834;8.732;2024-01-30T05:31:27;5.25;;;2.08;;
33830;SDS011;20137;48.834;8.732;2024-01-30T05:33:54;3.60;;;2.20;;
33830;SDS011;20137;48.834;8.732;2024-01-30T05:36:20;4.70;;;2.35;;
33830;SDS011;20137;48.834;8.732;2024-01-30T05:38:46;4.78;;;2.30;;
33830;SDS011;20137;48.834;8.732;2024-01-30T05:41:15;4.35;;;2.75;;
33830;SDS011;20137;48.834;8.732;2024-01-30T05:43:41;8.52;;;4.43;;
33830;SDS011;20137;48.834;8.732;2024-01-30T05:46:07;8.63;;;3.13;;
33830;SDS011;20137;48.834;8.732;2024-01-30T05:48:33;9.75;;;5.50;;
33830;SDS011;20137;48.834;8.732;2024-01-30T05:51:00;9.43;;;4.53;;
33830;SDS011;20137;48.834;8.732;2024-01-30T05:53:26;9.90;;;5.63;;
33830;SDS011;20137;48.834;8.732;2024-01-30T05:55:52;12.60;;;5.93;;
33830;SDS011;20137;48.834;8.732;2024-01-30T05:58:18;11.43;;;7.50;;
33830;SDS011;20137;48.834;8.732;2024-01-30T06:00:44;10.40;;;6.57;;
33830;SDS011;20137;48.834;8.732;2024-01-30T06:03:10;7.05;;;4.97;;
33830;SDS011;20137;48.834;8.732;2024-01-30T06:05:36;7.80;;;3.88;;
33830;SDS011;20137;48.834;8.732;2024-01-30T06:08:02;8.50;;;4.30;;
33830;SDS011;20137;48.834;8.732;2024-01-30T06:10:28;6.47;;;3.40;;
33830;SDS011;20137;48.834;8.732;2024-01-30T06:12:54;6.25;;;3.15;;
33830;SDS011;20137;48.834;8.732;2024-01-30T06:15:20;7.70;;;3.00;;
33830;SDS011;20137;48.834;8.732;2024-01-30T06:17:46;11.57;;;6.30;;
33830;SDS011;20137;48.834;8.732;2024-01-30T06:20:12;6.88;;;4.40;;
33830;SDS011;20137;48.834;8.732;2024-01-30T06:22:38;7.28;;;3.45;;
33830;SDS011;20137;48.834;8.732;2024-01-30T06:25:04;5.53;;;3.00;;
33830;SDS011;20137;48.834;8.732;2024-01-30T06:27:30;5.93;;;2.40;;
33830;SDS011;20137;48.834;8.732;2024-01-30T06:29:56;6.97;;;2.80;;
33830;SDS011;20137;48.834;8.732;2024-01-30T06:32:22;47.65;;;23.33;;
33830;SDS011;20137;48.834;8.732;2024-01-30T06:34:48;25.27;;;13.18;;
33830;SDS011;20137;48.834;8.732;2024-01-30T06:37:14;8.75;;;5.28;;
33830;SDS011;20137;48.834;8.732;2024-01-30T06:39:40;85.75;;;55.45;;
33830;SDS011;20137;48.834;8.732;2024-01-30T06:42:09;15.40;;;9.63;;
33830;SDS011;20137;48.834;8.732;2024-01-30T06:44:36;7.60;;;5.05;;
33830;SDS011;20137;48.834;8.732;2024-01-30T06:47:02;5.88;;;3.72;;
33830;SDS011;20137;48.834;8.732;2024-01-30T06:49:28;5.70;;;3.35;;
33830;SDS011;20137;48.834;8.732;2024-01-30T06:51:54;10.48;;;4.35;;
33830;SDS011;20137;48.834;8.732;2024-01-30T06:54:20;11.48;;;4.93;;
33830;SDS011;20137;48.834;8.732;2024-01-30T06:56:46;15.93;;;8.07;;
33830;SDS011;20137;48.834;8.732;2024-01-30T06:59:12;17.17;;;7.95;;
33830;SDS011;20137;48.834;8.732;2024-01-30T07:01:38;12.82;;;5.72;;
33830;SDS011;20137;48.834;8.732;2024-01-30T07:04:05;17.23;;;5.88;;
33830;SDS011;20137;48.834;8.732;2024-01-30T07:06:30;8.60;;;4.90;;
33830;SDS011;20137;48.834;8.732;2024-01-30T07:08:56;11.50;;;5.13;;
33830;SDS011;20137;48.834;8.732;2024-01-30T07:11:22;15.40;;;6.30;;
33830;SDS011;20137;48.834;8.732;2024-01-30T07:13:50;10.50;;;5.03;;
33830;SDS011;20137;48.834;8.732;2024-01-30T07:16:16;7.70;;;4.75;;
33830;SDS011;20137;48.834;8.732;2024-01-30T07:18:43;7.90;;;4.30;;
33830;SDS011;20137;48.834;8.732;2024-01-30T07:21:09;6.78;;;4.22;;
33830;SDS011;20137;48.834;8.732;2024-01-30T07:23:35;8.52;;;5.30;;
33830;SDS011;20137;48.834;8.732;2024-01-30T07:26:04;4.90;;;3.42;;
33830;SDS011;20137;48.834;8.732;2024-01-30T07:28:29;6.35;;;2.70;;
33830;SDS011;20137;48.834;8.732;2024-01-30T07:30:55;3.92;;;2.60;;
33830;SDS011;20137;48.834;8.732;2024-01-30T07:33:21;6.00;;;3.00;;
33830;SDS011;20137;48.834;8.732;2024-01-30T07:35:48;4.97;;;2.95;;
33830;SDS011;20137;48.834;8.732;2024-01-30T07:38:17;4.85;;;3.00;;
33830;SDS011;20137;48.834;8.732;2024-01-30T07:40:43;4.63;;;2.97;;
33830;SDS011;20137;48.834;8.732;2024-01-30T07:43:09;9.07;;;3.92;;
33830;SDS011;20137;48.834;8.732;2024-01-30T07:45:35;5.93;;;3.63;;
33830;SDS011;20137;48.834;8.732;2024-01-30T07:48:02;7.65;;;4.20;;
33830;SDS011;20137;48.834;8.732;2024-01-30T07:50:28;14.05;;;6.18;;
33830;SDS011;20137;48.834;8.732;2024-01-30T07:52:55;20.05;;;7.35;;
33830;SDS011;20137;48.834;8.732;2024-01-30T07:55:22;13.93;;;6.40;;
33830;SDS011;20137;48.834;8.732;2024-01-30T07:57:53;9.57;;;5.10;;
33830;SDS011;20137;48.834;8.732;2024-01-30T08:00:22;8.32;;;4.82;;
33830;SDS011;20137;48.834;8.732;2024-01-30T08:02:48;10.65;;;6.25;;
33830;SDS011;20137;48.834;8.732;2024-01-30T08:05:14;27.30;;;9.65;;
33830;SDS011;20137;48.834;8.732;2024-01-30T08:07:41;40.80;;;13.63;;
33830;SDS011;20137;48.834;8.732;2024-01-30T08:10:11;49.28;;;15.50;;
33830;SDS011;20137;48.834;8.732;2024-01-30T08:12:38;32.70;;;14.68;;
33830;SDS011;20137;48.834;8.732;2024-01-30T08:15:04;35.72;;;16.80;;
33830;SDS011;20137;48.834;8.732;2024-01-30T08:17:30;33.45;;;17.17;;
33830;SDS011;20137;48.834;8.732;2024-01-30T08:19:56;19.65;;;10.70;;
33830;SDS011;20137;48.834;8.732;2024-01-30T08:22:22;11.07;;;7.30;;
33830;SDS011;20137;48.834;8.732;2024-01-30T08:24:51;12.20;;;7.68;;
33830;SDS011;20137;48.834;8.732;2024-01-30T08:27:17;27.98;;;14.55;;
33830;SDS011;20137;48.834;8.732;2024-01-30T08:29:43;37.83;;;19.25;;
33830;SDS011;20137;48.834;8.732;2024-01-30T08:32:09;17.77;;;8.85;;
33830;SDS011;20137;48.834;8.732;2024-01-30T08:34:35;14.90;;;9.38;;
33830;SDS011;20137;48.834;8.732;2024-01-30T08:37:02;16.75;;;9.65;;
33830;SDS011;20137;48.834;8.732;2024-01-30T08:39:28;10.57;;;6.25;;
33830;SDS011;20137;48.834;8.732;2024-01-30T08:41:55;16.92;;;10.65;;
33830;SDS011;20137;48.834;8.732;2024-01-30T08:44:21;16.05;;;9.52;;
33830;SDS011;20137;48.834;8.732;2024-01-30T08:46:47;13.10;;;8.10;;
33830;SDS011;20137;48.834;8.732;2024-01-30T08:49:16;12.52;;;7.88;;
33830;SDS011;20137;48.834;8.732;2024-01-30T08:51:42;10.35;;;7.13;;
33830;SDS011;20137;48.834;8.732;2024-01-30T08:54:08;5.90;;;4.22;;
33830;SDS011;20137;48.834;8.732;2024-01-30T08:56:34;5.88;;;3.53;;
33830;SDS011;20137;48.834;8.732;2024-01-30T08:59:00;6.80;;;4.13;;
33830;SDS011;20137;48.834;8.732;2024-01-30T09:01:26;8.27;;;4.55;;
33830;SDS011;20137;48.834;8.732;2024-01-30T09:03:52;5.88;;;3.72;;
33830;SDS011;20137;48.834;8.732;2024-01-30T09:06:18;6.32;;;4.05;;
33830;SDS011;20137;48.834;8.732;2024-01-30T09:08:44;6.32;;;4.10;;
33830;SDS011;20137;48.834;8.732;2024-01-30T09:11:14;5.72;;;3.70;;
33830;SDS011;20137;48.834;8.732;2024-01-30T09:13:41;6.45;;;3.78;;
33830;SDS011;20137;48.834;8.732;2024-01-30T09:16:07;7.75;;;3.47;;
33830;SDS011;20137;48.834;8.732;2024-01-30T09:18:33;6.28;;;3.17;;
33830;SDS011;20137;48.834;8.732;2024-01-30T09:20:59;6.97;;;3.33;;
33830;SDS011;20137;48.834;8.732;2024-01-30T09:23:26;6.60;;;3.58;;
33830;SDS011;20137;48.834;8.732;2024-01-30T09:25:53;7.47;;;3.50;;
33830;SDS011;20137;48.834;8.732;2024-01-30T09:28:19;6.25;;;3.30;;
33830;SDS011;20137;48.834;8.732;2024-01-30T09:30:45;5.55;;;3.08;;
33830;SDS011;20137;48.834;8.732;2024-01-30T09:33:11;5.18;;;3.17;;
33830;SDS011;20137;48.834;8.732;2024-01-30T09:35:37;6.03;;;3.30;;
33830;SDS011;20137;48.834;8.732;2024-01-30T09:38:03;4.75;;;3.22;;
33830;SDS011;20137;48.834;8.732;2024-01-30T09:40:29;4.80;;;3.47;;
33830;SDS011;20137;48.834;8.732;2024-01-30T09:42:55;5.55;;;2.88;;
33830;SDS011;20137;48.834;8.732;2024-01-30T09:45:24;5.68;;;2.75;;
33830;SDS011;20137;48.834;8.732;2024-01-30T09:47:51;4.05;;;2.38;;
33830;SDS011;20137;48.834;8.732;2024-01-30T09:50:17;4.63;;;2.45;;
33830;SDS011;20137;48.834;8.732;2024-01-30T09:52:46;3.30;;;2.20;;
33830;SDS011;20137;48.834;8.732;2024-01-30T09:55:12;4.10;;;2.30;;
33830;SDS011;20137;48.834;8.732;2024-01-30T09:57:39;4.00;;;2.50;;
33830;SDS011;20137;48.834;8.732;2024-01-30T10:00:05;4.10;;;2.55;;
33830;SDS011;20137;48.834;8.732;2024-01-30T10:02:35;4.43;;;2.17;;
33830;SDS011;20137;48.834;8.732;2024-01-30T10:05:01;10.30;;;3.65;;
33830;SDS011;20137;48.834;8.732;2024-01-30T10:07:27;6.47;;;3.10;;
33830;SDS011;20137;48.834;8.732;2024-01-30T10:09:53;4.20;;;2.38;;
33830;SDS011;20137;48.834;8.732;2024-01-30T10:12:21;5.65;;;3.55;;
33830;SDS011;20137;48.834;8.732;2024-01-30T10:14:47;5.30;;;3.45;;
33830;SDS011;20137;48.834;8.732;2024-01-30T10:17:13;7.10;;;3.58;;
33830;SDS011;20137;48.834;8.732;2024-01-30T10:19:40;6.40;;;3.65;;
33830;SDS011;20137;48.834;8.732;2024-01-30T10:22:06;6.97;;;4.25;;
33830;SDS011;20137;48.834;8.732;2024-01-30T10:24:35;7.15;;;4.28;;
33830;SDS011;20137;48.834;8.732;2024-01-30T10:27:02;8.38;;;4.22;;
33830;SDS011;20137;48.834;8.732;2024-01-30T10:29:28;9.75;;;4.53;;
33830;SDS011;20137;48.834;8.732;2024-01-30T10:32:01;21.63;;;8.75;;
33830;SDS011;20137;48.834;8.732;2024-01-30T10:34:27;117.07;;;38.30;;
33830;SDS011;20137;48.834;8.732;2024-01-30T10:37:14;165.90;;;52.25;;
33830;SDS011;20137;48.834;8.732;2024-01-30T10:39:43;91.72;;;30.88;;
33830;SDS011;20137;48.834;8.732;2024-01-30T10:42:13;63.97;;;23.58;;
33830;SDS011;20137;48.834;8.732;2024-01-30T10:44:44;40.70;;;16.65;;
33830;SDS011;20137;48.834;8.732;2024-01-30T10:47:11;18.45;;;8.90;;
33830;SDS011;20137;48.834;8.732;2024-01-30T10:49:39;20.60;;;8.20;;
33830;SDS011;20137;48.834;8.732;2024-01-30T10:52:07;18.58;;;8.20;;
33830;SDS011;20137;48.834;8.732;2024-01-30T10:54:33;19.55;;;8.18;;
33830;SDS011;20137;48.834;8.732;2024-01-30T10:57:00;19.70;;;8.23;;
33830;SDS011;20137;48.834;8.732;2024-01-30T10:59:28;21.70;;;8.32;;
33830;SDS011;20137;48.834;8.732;2024-01-30T11:01:56;14.95;;;7.05;;
33830;SDS011;20137;48.834;8.732;2024-01-30T11:04:25;15.10;;;6.78;;
33830;SDS011;20137;48.834;8.732;2024-01-30T11:06:51;9.60;;;4.55;;
33830;SDS011;20137;48.834;8.732;2024-01-30T11:09:19;5.53;;;3.87;;
33830;SDS011;20137;48.834;8.732;2024-01-30T11:11:51;6.53;;;4.05;;
33830;SDS011;20137;48.834;8.732;2024-01-30T11:14:24;9.40;;;4.68;;
33830;SDS011;20137;48.834;8.732;2024-01-30T11:16:51;7.43;;;4.75;;
33830;SDS011;20137;48.834;8.732;2024-01-30T11:19:23;11.27;;;6.85;;
33830;SDS011;20137;48.834;8.732;2024-01-30T11:21:50;9.48;;;5.13;;
33830;SDS011;20137;48.834;8.732;2024-01-30T11:24:19;7.38;;;5.55;;
33830;SDS011;20137;48.834;8.732;2024-01-30T11:26:45;7.35;;;5.07;;
33830;SDS011;20137;48.834;8.732;2024-01-30T11:29:13;8.55;;;4.35;;
33830;SDS011;20137;48.834;8.732;2024-01-30T11:31:40;5.40;;;3.65;;
33830;SDS011;20137;48.834;8.732;2024-01-30T11:34:06;5.97;;;3.20;;
33830;SDS011;20137;48.834;8.732;2024-01-30T11:36:33;4.88;;;3.10;;
33830;SDS011;20137;48.834;8.732;2024-01-30T11:39:02;4.07;;;2.85;;
33830;SDS011;20137;48.834;8.732;2024-01-30T11:41:28;4.22;;;3.00;;
33830;SDS011;20137;48.834;8.732;2024-01-30T11:43:55;4.03;;;2.50;;
33830;SDS011;20137;48.834;8.732;2024-01-30T11:46:21;5.07;;;2.65;;
33830;SDS011;20137;48.834;8.732;2024-01-30T11:48:47;4.82;;;2.55;;
33830;SDS011;20137;48.834;8.732;2024-01-30T11:51:13;5.30;;;2.72;;
33830;SDS011;20137;48.834;8.732;2024-01-30T11:53:39;6.43;;;3.17;;
33830;SDS011;20137;48.834;8.732;2024-01-30T11:56:06;4.05;;;2.50;;
33830;SDS011;20137;48.834;8.732;2024-01-30T11:58:33;4.40;;;2.55;;
33830;SDS011;20137;48.834;8.732;2024-01-30T12:00:59;5.88;;;2.38;;
33830;SDS011;20137;48.834;8.732;2024-01-30T12:03:25;3.95;;;2.17;;
33830;SDS011;20137;48.834;8.732;2024-01-30T12:05:58;5.25;;;2.42;;
33830;SDS011;20137;48.834;8.732;2024-01-30T12:08:24;4.72;;;2.03;;
33830;SDS011;20137;48.834;8.732;2024-01-30T12:10:59;4.53;;;2.10;;
33830;SDS011;20137;48.834;8.732;2024-01-30T12:13:30;5.03;;;2.53;;
33830;SDS011;20137;48.834;8.732;2024-01-30T12:15:56;3.78;;;2.30;;
33830;SDS011;20137;48.834;8.732;2024-01-30T12:18:22;4.10;;;2.20;;
33830;SDS011;20137;48.834;8.732;2024-01-30T12:20:58;4.38;;;2.72;;
33830;SDS011;20137;48.834;8.732;2024-01-30T12:23:27;4.55;;;2.63;;
33830;SDS011;20137;48.834;8.732;2024-01-30T12:25:54;5.38;;;2.88;;
33830;SDS011;20137;48.834;8.732;2024-01-30T12:28:20;4.20;;;2.55;;
33830;SDS011;20137;48.834;8.732;2024-01-30T12:30:46;7.85;;;2.75;;
33830;SDS011;20137;48.834;8.732;2024-01-30T12:33:16;5.15;;;2.40;;
33830;SDS011;20137;48.834;8.732;2024-01-30T12:35:46;4.03;;;2.42;;
33830;SDS011;20137;48.834;8.732;2024-01-30T12:38:16;5.97;;;2.70;;
33830;SDS011;20137;48.834;8.732;2024-01-30T12:40:42;4.95;;;2.45;;
33830;SDS011;20137;48.834;8.732;2024-01-30T12:43:09;7.20;;;3.05;;
33830;SDS011;20137;48.834;8.732;2024-01-30T12:45:36;8.55;;;2.72;;
33830;SDS011;20137;48.834;8.732;2024-01-30T12:48:02;4.05;;;2.72;;
33830;SDS011;20137;48.834;8.732;2024-01-30T12:50:28;3.92;;;2.70;;
33830;SDS011;20137;48.834;8.732;2024-01-30T12:52:54;6.53;;;2.92;;
33830;SDS011;20137;48.834;8.732;2024-01-30T12:55:21;4.15;;;2.35;;
33830;SDS011;20137;48.834;8.732;2024-01-30T12:57:47;5.68;;;2.78;;
33830;SDS011;20137;48.834;8.732;2024-01-30T13:00:13;3.95;;;2.47;;
33830;SDS011;20137;48.834;8.732;2024-01-30T13:02:41;5.80;;;2.20;;
33830;SDS011;20137;48.834;8.732;2024-01-30T13:05:09;5.15;;;2.65;;
33830;SDS011;20137;48.834;8.732;2024-01-30T13:07:36;4.28;;;2.30;;
33830;SDS011;20137;48.834;8.732;2024-01-30T13:10:02;5.60;;;2.40;;
33830;SDS011;20137;48.834;8.732;2024-01-30T13:12:29;3.83;;;2.20;;
33830;SDS011;20137;48.834;8.732;2024-01-30T13:14:57;3.15;;;2.00;;
33830;SDS011;20137;48.834;8.732;2024-01-30T13:17:23;3.97;;;2.22;;
33830;SDS011;20137;48.834;8.732;2024-01-30T13:19:49;4.78;;;2.38;;
33830;SDS011;20137;48.834;8.732;2024-01-30T13:22:15;3.53;;;2.20;;
33830;SDS011;20137;48.834;8.732;2024-01-30T13:24:41;3.17;;;2.00;;
33830;SDS011;20137;48.834;8.732;2024-01-30T13:27:07;4.93;;;2.60;;
33830;SDS011;20137;48.834;8.732;2024-01-30T13:29:33;7.57;;;2.53;;
33830;SDS011;20137;48.834;8.732;2024-01-30T13:32:02;4.05;;;2.40;;
33830;SDS011;20137;48.834;8.732;2024-01-30T13:34:28;4.93;;;2.95;;
33830;SDS011;20137;48.834;8.732;2024-01-30T13:36:54;5.00;;;2.67;;
33830;SDS011;20137;48.834;8.732;2024-01-30T13:39:20;4.95;;;3.03;;
33830;SDS011;20137;48.834;8.732;2024-01-30T13:41:46;5.18;;;2.90;;
33830;SDS011;20137;48.834;8.732;2024-01-30T13:44:13;6.55;;;3.15;;
33830;SDS011;20137;48.834;8.732;2024-01-30T13:46:41;4.15;;;2.75;;
33830;SDS011;20137;48.834;8.732;2024-01-30T13:49:07;6.65;;;2.88;;
33830;SDS011;20137;48.834;8.732;2024-01-30T13:51:33;5.18;;;2.97;;
33830;SDS011;20137;48.834;8.732;2024-01-30T13:53:59;4.22;;;2.85;;
33830;SDS011;20137;48.834;8.732;2024-01-30T13:56:25;6.72;;;3.10;;
33830;SDS011;20137;48.834;8.732;2024-01-30T13:58:52;4.47;;;3.03;;
33830;SDS011;20137;48.834;8.732;2024-01-30T14:01:18;6.22;;;3.05;;
33830;SDS011;20137;48.834;8.732;2024-01-30T14:03:44;4.90;;;2.97;;
33830;SDS011;20137;48.834;8.732;2024-01-30T14:06:10;8.60;;;3.33;;
33830;SDS011;20137;48.834;8.732;2024-01-30T14:08:36;4.22;;;3.03;;
33830;SDS011;20137;48.834;8.732;2024-01-30T14:11:03;6.38;;;2.63;;
33830;SDS011;20137;48.834;8.732;2024-01-30T14:13:29;8.10;;;3.70;;
33830;SDS011;20137;48.834;8.732;2024-01-30T14:15:56;8.40;;;3.60;;
33830;SDS011;20137;48.834;8.732;2024-01-30T14:18:22;9.00;;;4.72;;
33830;SDS011;20137;48.834;8.732;2024-01-30T14:20:50;7.53;;;3.80;;
33830;SDS011;20137;48.834;8.732;2024-01-30T14:23:17;7.57;;;3.50;;
33830;SDS011;20137;48.834;8.732;2024-01-30T14:25:43;7.35;;;4.10;;
33830;SDS011;20137;48.834;8.732;2024-01-30T14:28:09;8.13;;;3.67;;
33830;SDS011;20137;48.834;8.732;2024-01-30T14:30:35;5.68;;;3.80;;
33830;SDS011;20137;48.834;8.732;2024-01-30T14:33:01;8.55;;;3.90;;
33830;SDS011;20137;48.834;8.732;2024-01-30T14:35:28;10.85;;;4.35;;
33830;SDS011;20137;48.834;8.732;2024-01-30T14:37:54;8.88;;;4.03;;
33830;SDS011;20137;48.834;8.732;2024-01-30T14:40:20;8.00;;;3.78;;
33830;SDS011;20137;48.834;8.732;2024-01-30T14:42:46;7.88;;;3.88;;